sensor_id;sensor_type;location;lat;lon;timestamp;P1;durP1;ratioP1;P2;durP2;ratioP2
78561;SDS011;68963;52.138;5.446;2024-02-26T00:01:48;9.05;;;4.07;;
78561;SDS011;68963;52.138;5.446;2024-02-26T00:04:15;9.10;;;4.25;;
78561;SDS011;68963;52.138;5.446;2024-02-26T00:06:41;8.38;;;4.60;;
78561;SDS011;68963;52.138;5.446;2024-02-26T00:09:09;9.75;;;4.00;;
78561;SDS011;68963;52.138;5.446;2024-02-26T00:11:36;7.63;;;3.85;;
78561;SDS011;68963;52.138;5.446;2024-02-26T00:14:03;9.50;;;4.53;;
78561;SDS011;68963;52.138;5.446;2024-02-26T00:16:30;9.27;;;4.30;;
78561;SDS011;68963;52.138;5.446;2024-02-26T00:18:56;9.65;;;4.63;;
78561;SDS011;68963;52.138;5.446;2024-02-26T00:21:23;9.45;;;4.30;;
78561;SDS011;68963;52.138;5.446;2024-02-26T00:23:50;8.90;;;4.22;;
78561;SDS011;68963;52.138;5.446;2024-02-26T00:26:18;9.95;;;4.30;;
78561;SDS011;68963;52.138;5.446;2024-02-26T00:28:44;10.25;;;4.65;;
78561;SDS011;68963;52.138;5.446;2024-02-26T00:31:11;8.70;;;4.38;;
78561;SDS011;68963;52.138;5.446;2024-02-26T00:33:37;9.43;;;4.78;;
78561;SDS011;68963;52.138;5.446;2024-02-26T00:36:04;9.00;;;4.32;;
78561;SDS011;68963;52.138;5.446;2024-02-26T00:38:31;11.55;;;5.40;;
78561;SDS011;68963;52.138;5.446;2024-02-26T00:40:58;8.32;;;4.80;;
78561;SDS011;68963;52.138;5.446;2024-02-26T00:43:25;9.48;;;4.68;;
78561;SDS011;68963;52.138;5.446;2024-02-26T00:45:51;9.80;;;4.93;;
78561;SDS011;68963;52.138;5.446;2024-02-26T00:48:18;11.73;;;4.93;;
78561;SDS011;68963;52.138;5.446;2024-02-26T00:50:45;10.63;;;4.55;;
78561;SDS011;68963;52.138;5.446;2024-02-26T00:53:12;10.68;;;5.15;;
78561;SDS011;68963;52.138;5.446;2024-02-26T00:55:39;10.75;;;5.05;;
78561;SDS011;68963;52.138;5.446;2024-02-26T00:58:05;9.93;;;4.70;;
78561;SDS011;68963;52.138;5.446;2024-02-26T01:00:32;8.90;;;4.43;;
78561;SDS011;68963;52.138;5.446;2024-02-26T01:02:58;10.15;;;4.85;;
78561;SDS011;68963;52.138;5.446;2024-02-26T01:05:26;11.65;;;5.05;;
78561;SDS011;68963;52.138;5.446;2024-02-26T01:07:53;9.82;;;4.20;;
78561;SDS011;68963;52.138;5.446;2024-02-26T01:10:19;10.40;;;4.70;;
78561;SDS011;68963;52.138;5.446;2024-02-26T01:12:46;12.48;;;4.57;;
78561;SDS011;68963;52.138;5.446;2024-02-26T01:15:14;9.75;;;5.05;;
78561;SDS011;68963;52.138;5.446;2024-02-26T01:17:41;9.73;;;4.63;;
78561;SDS011;68963;52.138;5.446;2024-02-26T01:20:08;10.77;;;4.85;;
78561;SDS011;68963;52.138;5.446;2024-02-26T01:22:35;9.35;;;4.20;;
78561;SDS011;68963;52.138;5.446;2024-02-26T01:25:02;10.40;;;4.85;;
78561;SDS011;68963;52.138;5.446;2024-02-26T01:27:29;9.07;;;4.30;;
78561;SDS011;68963;52.138;5.446;2024-02-26T01:29:55;11.88;;;4.93;;
78561;SDS011;68963;52.138;5.446;2024-02-26T01:32:22;10.15;;;4.97;;
78561;SDS011;68963;52.138;5.446;2024-02-26T01:34:48;11.88;;;4.82;;
78561;SDS011;68963;52.138;5.446;2024-02-26T01:37:15;11.60;;;4.68;;
78561;SDS011;68963;52.138;5.446;2024-02-26T01:39:42;9.90;;;4.93;;
78561;SDS011;68963;52.138;5.446;2024-02-26T01:42:08;9.90;;;4.57;;
78561;SDS011;68963;52.138;5.446;2024-02-26T01:44:35;9.85;;;4.72;;
78561;SDS011;68963;52.138;5.446;2024-02-26T01:47:01;9.32;;;4.20;;
78561;SDS011;68963;52.138;5.446;2024-02-26T01:49:29;10.70;;;4.30;;
78561;SDS011;68963;52.138;5.446;2024-02-26T01:51:56;9.98;;;4.63;;
78561;SDS011;68963;52.138;5.446;2024-02-26T01:54:24;11.32;;;4.78;;
78561;SDS011;68963;52.138;5.446;2024-02-26T01:56:52;10.52;;;4.68;;
78561;SDS011;68963;52.138;5.446;2024-02-26T01:59:18;9.57;;;4.30;;
78561;SDS011;68963;52.138;5.446;2024-02-26T02:01:46;11.50;;;4.90;;
78561;SDS011;68963;52.138;5.446;2024-02-26T02:04:18;10.32;;;4.55;;
78561;SDS011;68963;52.138;5.446;2024-02-26T02:06:45;10.60;;;4.75;;
78561;SDS011;68963;52.138;5.446;2024-02-26T02:09:12;11.32;;;4.45;;
78561;SDS011;68963;52.138;5.446;2024-02-26T02:11:39;9.02;;;4.38;;
78561;SDS011;68963;52.138;5.446;2024-02-26T02:14:06;11.40;;;5.30;;
78561;SDS011;68963;52.138;5.446;2024-02-26T02:16:33;11.02;;;4.75;;
78561;SDS011;68963;52.138;5.446;2024-02-26T02:19:00;11.85;;;4.95;;
78561;SDS011;68963;52.138;5.446;2024-02-26T02:21:26;8.52;;;3.67;;
78561;SDS011;68963;52.138;5.446;2024-02-26T02:23:53;10.85;;;4.95;;
78561;SDS011;68963;52.138;5.446;2024-02-26T02:26:20;11.63;;;4.40;;
78561;SDS011;68963;52.138;5.446;2024-02-26T02:28:47;10.80;;;5.07;;
78561;SDS011;68963;52.138;5.446;2024-02-26T02:31:14;9.98;;;4.35;;
78561;SDS011;68963;52.138;5.446;2024-02-26T02:33:41;9.98;;;4.53;;
78561;SDS011;68963;52.138;5.446;2024-02-26T02:36:09;9.65;;;4.32;;
78561;SDS011;68963;52.138;5.446;2024-02-26T02:38:36;11.32;;;4.80;;
78561;SDS011;68963;52.138;5.446;2024-02-26T02:41:03;10.70;;;4.75;;
78561;SDS011;68963;52.138;5.446;2024-02-26T02:43:31;9.68;;;4.30;;
78561;SDS011;68963;52.138;5.446;2024-02-26T02:45:57;10.70;;;4.68;;
78561;SDS011;68963;52.138;5.446;2024-02-26T02:48:24;10.52;;;4.85;;
78561;SDS011;68963;52.138;5.446;2024-02-26T02:50:51;8.75;;;4.15;;
78561;SDS011;68963;52.138;5.446;2024-02-26T02:53:17;11.48;;;4.78;;
78561;SDS011;68963;52.138;5.446;2024-02-26T02:55:44;9.68;;;4.45;;
78561;SDS011;68963;52.138;5.446;2024-02-26T02:58:12;10.15;;;4.70;;
78561;SDS011;68963;52.138;5.446;2024-02-26T03:00:38;11.00;;;4.78;;
78561;SDS011;68963;52.138;5.446;2024-02-26T03:03:05;10.10;;;4.47;;
78561;SDS011;68963;52.138;5.446;2024-02-26T03:05:32;10.45;;;4.90;;
78561;SDS011;68963;52.138;5.446;2024-02-26T03:07:59;11.48;;;4.95;;
78561;SDS011;68963;52.138;5.446;2024-02-26T03:10:26;10.50;;;4.75;;
78561;SDS011;68963;52.138;5.446;2024-02-26T03:12:53;12.02;;;5.40;;
78561;SDS011;68963;52.138;5.446;2024-02-26T03:15:20;10.93;;;5.15;;
78561;SDS011;68963;52.138;5.446;2024-02-26T03:17:46;11.18;;;4.95;;
78561;SDS011;68963;52.138;5.446;2024-02-26T03:20:13;11.68;;;5.30;;
78561;SDS011;68963;52.138;5.446;2024-02-26T03:22:40;11.88;;;5.32;;
78561;SDS011;68963;52.138;5.446;2024-02-26T03:25:07;11.98;;;5.13;;
78561;SDS011;68963;52.138;5.446;2024-02-26T03:27:34;14.60;;;6.00;;
78561;SDS011;68963;52.138;5.446;2024-02-26T03:30:00;12.63;;;5.10;;
78561;SDS011;68963;52.138;5.446;2024-02-26T03:32:27;13.07;;;5.63;;
78561;SDS011;68963;52.138;5.446;2024-02-26T03:34:54;12.32;;;5.28;;
78561;SDS011;68963;52.138;5.446;2024-02-26T03:37:22;13.20;;;5.68;;
78561;SDS011;68963;52.138;5.446;2024-02-26T03:39:48;13.35;;;5.57;;
78561;SDS011;68963;52.138;5.446;2024-02-26T03:42:15;13.30;;;6.15;;
78561;SDS011;68963;52.138;5.446;2024-02-26T03:44:42;12.98;;;5.88;;
78561;SDS011;68963;52.138;5.446;2024-02-26T03:47:09;12.73;;;5.68;;
78561;SDS011;68963;52.138;5.446;2024-02-26T03:49:36;16.45;;;6.07;;
78561;SDS011;68963;52.138;5.446;2024-02-26T03:52:02;13.68;;;5.97;;
78561;SDS011;68963;52.138;5.446;2024-02-26T03:54:29;13.75;;;6.28;;
78561;SDS011;68963;52.138;5.446;2024-02-26T03:56:56;13.30;;;6.15;;
78561;SDS011;68963;52.138;5.446;2024-02-26T03:59:22;11.90;;;5.63;;
78561;SDS011;68963;52.138;5.446;2024-02-26T04:01:51;12.45;;;5.38;;
78561;SDS011;68963;52.138;5.446;2024-02-26T04:04:18;13.10;;;5.95;;
78561;SDS011;68963;52.138;5.446;2024-02-26T04:06:45;11.25;;;5.13;;
78561;SDS011;68963;52.138;5.446;2024-02-26T04:09:15;12.10;;;5.50;;
78561;SDS011;68963;52.138;5.446;2024-02-26T04:11:42;12.10;;;5.15;;
78561;SDS011;68963;52.138;5.446;2024-02-26T04:14:12;12.40;;;5.68;;
78561;SDS011;68963;52.138;5.446;2024-02-26T04:16:38;12.18;;;5.85;;
78561;SDS011;68963;52.138;5.446;2024-02-26T04:19:05;14.57;;;6.22;;
78561;SDS011;68963;52.138;5.446;2024-02-26T04:21:33;13.70;;;6.32;;
78561;SDS011;68963;52.138;5.446;2024-02-26T04:24:00;15.00;;;5.72;;
78561;SDS011;68963;52.138;5.446;2024-02-26T04:26:28;12.27;;;5.78;;
78561;SDS011;68963;52.138;5.446;2024-02-26T04:28:56;12.05;;;5.32;;
78561;SDS011;68963;52.138;5.446;2024-02-26T04:31:23;13.05;;;5.90;;
78561;SDS011;68963;52.138;5.446;2024-02-26T04:33:49;11.70;;;5.35;;
78561;SDS011;68963;52.138;5.446;2024-02-26T04:36:16;11.63;;;5.70;;
78561;SDS011;68963;52.138;5.446;2024-02-26T04:38:43;13.35;;;5.95;;
78561;SDS011;68963;52.138;5.446;2024-02-26T04:41:10;12.45;;;5.15;;
78561;SDS011;68963;52.138;5.446;2024-02-26T04:43:37;11.68;;;5.40;;
78561;SDS011;68963;52.138;5.446;2024-02-26T04:46:08;12.55;;;5.55;;
78561;SDS011;68963;52.138;5.446;2024-02-26T04:48:35;11.77;;;5.18;;
78561;SDS011;68963;52.138;5.446;2024-02-26T04:51:05;12.40;;;5.60;;
78561;SDS011;68963;52.138;5.446;2024-02-26T04:53:32;12.60;;;5.65;;
78561;SDS011;68963;52.138;5.446;2024-02-26T04:55:58;13.32;;;6.13;;
78561;SDS011;68963;52.138;5.446;2024-02-26T04:58:25;11.15;;;5.63;;
78561;SDS011;68963;52.138;5.446;2024-02-26T05:00:51;11.55;;;5.15;;
78561;SDS011;68963;52.138;5.446;2024-02-26T05:03:18;12.68;;;5.80;;
78561;SDS011;68963;52.138;5.446;2024-02-26T05:05:45;12.20;;;5.47;;
78561;SDS011;68963;52.138;5.446;2024-02-26T05:08:12;12.27;;;5.78;;
78561;SDS011;68963;52.138;5.446;2024-02-26T05:10:38;13.25;;;6.20;;
78561;SDS011;68963;52.138;5.446;2024-02-26T05:13:07;12.55;;;6.05;;
78561;SDS011;68963;52.138;5.446;2024-02-26T05:15:34;12.50;;;5.78;;
78561;SDS011;68963;52.138;5.446;2024-02-26T05:18:02;13.43;;;6.00;;
78561;SDS011;68963;52.138;5.446;2024-02-26T05:20:29;11.77;;;5.28;;
78561;SDS011;68963;52.138;5.446;2024-02-26T05:22:56;14.93;;;6.18;;
78561;SDS011;68963;52.138;5.446;2024-02-26T05:25:24;14.13;;;6.13;;
78561;SDS011;68963;52.138;5.446;2024-02-26T05:27:50;12.63;;;5.78;;
78561;SDS011;68963;52.138;5.446;2024-02-26T05:30:17;13.45;;;5.72;;
78561;SDS011;68963;52.138;5.446;2024-02-26T05:32:43;12.50;;;5.65;;
78561;SDS011;68963;52.138;5.446;2024-02-26T05:35:10;14.18;;;6.50;;
78561;SDS011;68963;52.138;5.446;2024-02-26T05:37:37;15.07;;;6.68;;
78561;SDS011;68963;52.138;5.446;2024-02-26T05:40:04;13.50;;;5.78;;
78561;SDS011;68963;52.138;5.446;2024-02-26T05:42:32;14.90;;;6.47;;
78561;SDS011;68963;52.138;5.446;2024-02-26T05:44:59;14.95;;;6.13;;
78561;SDS011;68963;52.138;5.446;2024-02-26T05:47:32;11.52;;;5.78;;
78561;SDS011;68963;52.138;5.446;2024-02-26T05:49:59;13.35;;;6.03;;
78561;SDS011;68963;52.138;5.446;2024-02-26T05:52:27;15.20;;;6.90;;
78561;SDS011;68963;52.138;5.446;2024-02-26T05:54:55;14.00;;;6.78;;
78561;SDS011;68963;52.138;5.446;2024-02-26T05:57:22;14.07;;;6.45;;
78561;SDS011;68963;52.138;5.446;2024-02-26T05:59:48;13.82;;;6.18;;
78561;SDS011;68963;52.138;5.446;2024-02-26T06:02:15;14.40;;;6.38;;
78561;SDS011;68963;52.138;5.446;2024-02-26T06:04:41;15.75;;;6.10;;
78561;SDS011;68963;52.138;5.446;2024-02-26T06:07:08;14.68;;;6.55;;
78561;SDS011;68963;52.138;5.446;2024-02-26T06:09:35;15.32;;;6.30;;
78561;SDS011;68963;52.138;5.446;2024-02-26T06:12:02;14.57;;;6.07;;
78561;SDS011;68963;52.138;5.446;2024-02-26T06:14:29;15.20;;;6.75;;
78561;SDS011;68963;52.138;5.446;2024-02-26T06:16:55;14.40;;;6.18;;
78561;SDS011;68963;52.138;5.446;2024-02-26T06:19:22;14.93;;;6.55;;
78561;SDS011;68963;52.138;5.446;2024-02-26T06:21:49;14.63;;;6.15;;
78561;SDS011;68963;52.138;5.446;2024-02-26T06:24:16;14.30;;;6.20;;
78561;SDS011;68963;52.138;5.446;2024-02-26T06:26:43;14.50;;;6.20;;
78561;SDS011;68963;52.138;5.446;2024-02-26T06:29:09;14.27;;;6.22;;
78561;SDS011;68963;52.138;5.446;2024-02-26T06:31:36;18.38;;;6.82;;
78561;SDS011;68963;52.138;5.446;2024-02-26T06:34:03;12.93;;;4.35;;
78561;SDS011;68963;52.138;5.446;2024-02-26T06:36:30;14.32;;;5.97;;
78561;SDS011;68963;52.138;5.446;2024-02-26T06:38:58;14.77;;;6.25;;
78561;SDS011;68963;52.138;5.446;2024-02-26T06:41:25;17.35;;;6.90;;
78561;SDS011;68963;52.138;5.446;2024-02-26T06:43:54;16.45;;;6.95;;
78561;SDS011;68963;52.138;5.446;2024-02-26T06:46:20;14.05;;;5.82;;
78561;SDS011;68963;52.138;5.446;2024-02-26T06:48:48;15.70;;;6.38;;
78561;SDS011;68963;52.138;5.446;2024-02-26T06:51:20;16.83;;;6.47;;
78561;SDS011;68963;52.138;5.446;2024-02-26T06:53:46;15.87;;;6.23;;
78561;SDS011;68963;52.138;5.446;2024-02-26T06:56:13;17.58;;;7.60;;
78561;SDS011;68963;52.138;5.446;2024-02-26T06:58:40;17.45;;;6.78;;
78561;SDS011;68963;52.138;5.446;2024-02-26T07:01:06;18.30;;;7.00;;
78561;SDS011;68963;52.138;5.446;2024-02-26T07:03:34;21.13;;;8.02;;
78561;SDS011;68963;52.138;5.446;2024-02-26T07:06:01;16.05;;;5.25;;
78561;SDS011;68963;52.138;5.446;2024-02-26T07:08:28;11.93;;;4.85;;
78561;SDS011;68963;52.138;5.446;2024-02-26T07:10:55;20.83;;;7.65;;
78561;SDS011;68963;52.138;5.446;2024-02-26T07:13:21;18.73;;;6.63;;
78561;SDS011;68963;52.138;5.446;2024-02-26T07:15:48;18.67;;;7.10;;
78561;SDS011;68963;52.138;5.446;2024-02-26T07:18:15;21.88;;;8.80;;
78561;SDS011;68963;52.138;5.446;2024-02-26T07:20:42;21.55;;;7.75;;
78561;SDS011;68963;52.138;5.446;2024-02-26T07:23:09;21.17;;;7.55;;
78561;SDS011;68963;52.138;5.446;2024-02-26T07:25:35;17.98;;;6.95;;
78561;SDS011;68963;52.138;5.446;2024-02-26T07:28:02;19.95;;;8.02;;
78561;SDS011;68963;52.138;5.446;2024-02-26T07:30:28;18.73;;;7.05;;
78561;SDS011;68963;52.138;5.446;2024-02-26T07:32:55;23.75;;;8.88;;
78561;SDS011;68963;52.138;5.446;2024-02-26T07:35:21;18.02;;;7.43;;
78561;SDS011;68963;52.138;5.446;2024-02-26T07:37:48;23.55;;;9.02;;
78561;SDS011;68963;52.138;5.446;2024-02-26T07:40:16;20.75;;;8.35;;
78561;SDS011;68963;52.138;5.446;2024-02-26T07:42:43;27.83;;;8.85;;
78561;SDS011;68963;52.138;5.446;2024-02-26T07:45:09;20.38;;;8.10;;
78561;SDS011;68963;52.138;5.446;2024-02-26T07:47:36;24.05;;;8.50;;
78561;SDS011;68963;52.138;5.446;2024-02-26T07:50:07;25.65;;;10.07;;
78561;SDS011;68963;52.138;5.446;2024-02-26T07:52:35;25.67;;;10.02;;
78561;SDS011;68963;52.138;5.446;2024-02-26T07:55:01;23.60;;;8.38;;
78561;SDS011;68963;52.138;5.446;2024-02-26T07:57:33;24.52;;;9.30;;
78561;SDS011;68963;52.138;5.446;2024-02-26T08:00:03;22.17;;;8.60;;
78561;SDS011;68963;52.138;5.446;2024-02-26T08:02:30;20.80;;;8.25;;
78561;SDS011;68963;52.138;5.446;2024-02-26T08:04:56;21.80;;;9.05;;
78561;SDS011;68963;52.138;5.446;2024-02-26T08:07:23;24.40;;;9.95;;
78561;SDS011;68963;52.138;5.446;2024-02-26T08:09:50;24.90;;;9.95;;
78561;SDS011;68963;52.138;5.446;2024-02-26T08:12:16;19.85;;;7.20;;
78561;SDS011;68963;52.138;5.446;2024-02-26T08:14:43;20.00;;;7.95;;
78561;SDS011;68963;52.138;5.446;2024-02-26T08:17:10;19.95;;;7.45;;
78561;SDS011;68963;52.138;5.446;2024-02-26T08:19:37;21.13;;;8.43;;
78561;SDS011;68963;52.138;5.446;2024-02-26T08:22:03;19.00;;;8.13;;
78561;SDS011;68963;52.138;5.446;2024-02-26T08:24:30;17.58;;;7.80;;
78561;SDS011;68963;52.138;5.446;2024-02-26T08:26:57;17.52;;;6.90;;
78561;SDS011;68963;52.138;5.446;2024-02-26T08:29:24;20.33;;;8.23;;
78561;SDS011;68963;52.138;5.446;2024-02-26T08:31:50;15.32;;;6.65;;
78561;SDS011;68963;52.138;5.446;2024-02-26T08:34:17;19.35;;;9.00;;
78561;SDS011;68963;52.138;5.446;2024-02-26T08:36:44;17.17;;;7.22;;
78561;SDS011;68963;52.138;5.446;2024-02-26T08:39:10;19.48;;;8.32;;
78561;SDS011;68963;52.138;5.446;2024-02-26T08:41:40;18.48;;;7.53;;
78561;SDS011;68963;52.138;5.446;2024-02-26T08:44:06;16.73;;;6.22;;
78561;SDS011;68963;52.138;5.446;2024-02-26T08:46:33;15.23;;;6.03;;
78561;SDS011;68963;52.138;5.446;2024-02-26T08:48:59;13.77;;;5.88;;
78561;SDS011;68963;52.138;5.446;2024-02-26T08:51:26;12.55;;;5.05;;
78561;SDS011;68963;52.138;5.446;2024-02-26T08:53:54;12.00;;;4.93;;
78561;SDS011;68963;52.138;5.446;2024-02-26T08:56:20;15.65;;;6.28;;
78561;SDS011;68963;52.138;5.446;2024-02-26T08:58:47;13.10;;;5.68;;
78561;SDS011;68963;52.138;5.446;2024-02-26T09:01:19;14.63;;;6.43;;
78561;SDS011;68963;52.138;5.446;2024-02-26T09:03:46;14.50;;;6.03;;
78561;SDS011;68963;52.138;5.446;2024-02-26T09:06:14;13.85;;;5.93;;
78561;SDS011;68963;52.138;5.446;2024-02-26T09:08:41;13.73;;;6.15;;
78561;SDS011;68963;52.138;5.446;2024-02-26T09:11:08;13.52;;;5.43;;
78561;SDS011;68963;52.138;5.446;2024-02-26T09:16:03;12.43;;;5.50;;
78561;SDS011;68963;52.138;5.446;2024-02-26T09:18:29;12.77;;;5.13;;
78561;SDS011;68963;52.138;5.446;2024-02-26T09:20:56;15.10;;;6.75;;
78561;SDS011;68963;52.138;5.446;2024-02-26T09:23:23;12.10;;;5.55;;
78561;SDS011;68963;52.138;5.446;2024-02-26T09:25:49;13.65;;;5.60;;
78561;SDS011;68963;52.138;5.446;2024-02-26T09:28:19;16.20;;;6.10;;
78561;SDS011;68963;52.138;5.446;2024-02-26T09:30:45;14.02;;;5.90;;
78561;SDS011;68963;52.138;5.446;2024-02-26T09:33:13;15.63;;;6.15;;
78561;SDS011;68963;52.138;5.446;2024-02-26T09:35:40;11.50;;;4.60;;
78561;SDS011;68963;52.138;5.446;2024-02-26T09:38:07;14.15;;;5.70;;
78561;SDS011;68963;52.138;5.446;2024-02-26T09:40:34;12.50;;;5.50;;
78561;SDS011;68963;52.138;5.446;2024-02-26T09:43:01;9.32;;;4.10;;
78561;SDS011;68963;52.138;5.446;2024-02-26T09:45:31;11.98;;;4.95;;
78561;SDS011;68963;52.138;5.446;2024-02-26T09:47:59;10.80;;;3.88;;
78561;SDS011;68963;52.138;5.446;2024-02-26T09:50:30;12.70;;;5.10;;
78561;SDS011;68963;52.138;5.446;2024-02-26T09:52:59;10.57;;;4.43;;
78561;SDS011;68963;52.138;5.446;2024-02-26T09:55:28;12.57;;;6.07;;
78561;SDS011;68963;52.138;5.446;2024-02-26T09:57:55;13.32;;;5.55;;
78561;SDS011;68963;52.138;5.446;2024-02-26T10:00:22;12.00;;;4.93;;
78561;SDS011;68963;52.138;5.446;2024-02-26T10:02:52;12.02;;;5.53;;
78561;SDS011;68963;52.138;5.446;2024-02-26T10:05:22;11.30;;;4.80;;
78561;SDS011;68963;52.138;5.446;2024-02-26T10:07:51;10.35;;;4.22;;
78561;SDS011;68963;52.138;5.446;2024-02-26T10:10:18;9.85;;;4.05;;
78561;SDS011;68963;52.138;5.446;2024-02-26T10:12:45;10.05;;;4.15;;
78561;SDS011;68963;52.138;5.446;2024-02-26T10:15:12;11.65;;;4.78;;
78561;SDS011;68963;52.138;5.446;2024-02-26T10:17:38;10.23;;;4.50;;
78561;SDS011;68963;52.138;5.446;2024-02-26T10:20:12;9.10;;;3.80;;
78561;SDS011;68963;52.138;5.446;2024-02-26T10:22:41;10.23;;;4.30;;
78561;SDS011;68963;52.138;5.446;2024-02-26T10:25:08;8.27;;;3.28;;
78561;SDS011;68963;52.138;5.446;2024-02-26T10:27:35;10.30;;;3.97;;
78561;SDS011;68963;52.138;5.446;2024-02-26T10:30:18;11.10;;;4.90;;
78561;SDS011;68963;52.138;5.446;2024-02-26T10:32:47;8.85;;;3.80;;
78561;SDS011;68963;52.138;5.446;2024-02-26T10:35:16;9.90;;;3.83;;
78561;SDS011;68963;52.138;5.446;2024-02-26T10:37:44;9.13;;;3.90;;
78561;SDS011;68963;52.138;5.446;2024-02-26T10:40:11;11.32;;;4.75;;
78561;SDS011;68963;52.138;5.446;2024-02-26T10:42:39;10.90;;;4.15;;
78561;SDS011;68963;52.138;5.446;2024-02-26T10:45:07;10.85;;;4.70;;
78561;SDS011;68963;52.138;5.446;2024-02-26T10:47:37;9.60;;;3.90;;
78561;SDS011;68963;52.138;5.446;2024-02-26T10:50:06;10.32;;;4.15;;
78561;SDS011;68963;52.138;5.446;2024-02-26T10:52:34;12.20;;;5.05;;
78561;SDS011;68963;52.138;5.446;2024-02-26T10:55:02;12.07;;;4.60;;
78561;SDS011;68963;52.138;5.446;2024-02-26T10:57:34;12.02;;;4.18;;
78561;SDS011;68963;52.138;5.446;2024-02-26T11:00:08;10.27;;;4.43;;
78561;SDS011;68963;52.138;5.446;2024-02-26T11:02:40;10.35;;;3.50;;
78561;SDS011;68963;52.138;5.446;2024-02-26T11:05:07;10.82;;;4.43;;
78561;SDS011;68963;52.138;5.446;2024-02-26T11:07:34;8.82;;;3.25;;
78561;SDS011;68963;52.138;5.446;2024-02-26T11:10:03;9.95;;;3.70;;
78561;SDS011;68963;52.138;5.446;2024-02-26T11:12:34;10.23;;;4.18;;
78561;SDS011;68963;52.138;5.446;2024-02-26T11:15:04;12.00;;;4.95;;
78561;SDS011;68963;52.138;5.446;2024-02-26T11:17:32;13.50;;;5.65;;
78561;SDS011;68963;52.138;5.446;2024-02-26T11:20:00;6.05;;;2.35;;
78561;SDS011;68963;52.138;5.446;2024-02-26T11:22:29;12.32;;;4.65;;
78561;SDS011;68963;52.138;5.446;2024-02-26T11:24:56;11.13;;;4.30;;
78561;SDS011;68963;52.138;5.446;2024-02-26T11:27:25;8.45;;;3.22;;
78561;SDS011;68963;52.138;5.446;2024-02-26T11:29:57;9.85;;;3.90;;
78561;SDS011;68963;52.138;5.446;2024-02-26T11:32:26;11.10;;;4.95;;
78561;SDS011;68963;52.138;5.446;2024-02-26T11:34:56;7.85;;;3.03;;
78561;SDS011;68963;52.138;5.446;2024-02-26T11:37:24;12.68;;;4.95;;
78561;SDS011;68963;52.138;5.446;2024-02-26T11:39:51;9.93;;;4.07;;
78561;SDS011;68963;52.138;5.446;2024-02-26T11:42:22;10.35;;;3.97;;
78561;SDS011;68963;52.138;5.446;2024-02-26T11:44:51;12.50;;;4.75;;
78561;SDS011;68963;52.138;5.446;2024-02-26T11:47:18;9.50;;;4.10;;
78561;SDS011;68963;52.138;5.446;2024-02-26T11:49:46;10.02;;;4.05;;
78561;SDS011;68963;52.138;5.446;2024-02-26T11:52:13;14.07;;;5.28;;
78561;SDS011;68963;52.138;5.446;2024-02-26T11:54:47;10.82;;;3.63;;
78561;SDS011;68963;52.138;5.446;2024-02-26T11:57:25;12.02;;;5.43;;
78561;SDS011;68963;52.138;5.446;2024-02-26T12:00:18;11.43;;;4.75;;
78561;SDS011;68963;52.138;5.446;2024-02-26T12:02:52;10.80;;;3.83;;
78561;SDS011;68963;52.138;5.446;2024-02-26T12:05:31;13.13;;;5.35;;
78561;SDS011;68963;52.138;5.446;2024-02-26T12:07:59;12.15;;;5.05;;
78561;SDS011;68963;52.138;5.446;2024-02-26T12:10:27;12.45;;;4.75;;
78561;SDS011;68963;52.138;5.446;2024-02-26T12:13:00;12.73;;;4.80;;
78561;SDS011;68963;52.138;5.446;2024-02-26T12:15:35;13.48;;;5.38;;
78561;SDS011;68963;52.138;5.446;2024-02-26T12:18:04;11.75;;;4.70;;
78561;SDS011;68963;52.138;5.446;2024-02-26T12:20:37;8.88;;;4.22;;
78561;SDS011;68963;52.138;5.446;2024-02-26T12:23:06;10.30;;;3.90;;
78561;SDS011;68963;52.138;5.446;2024-02-26T12:25:33;9.90;;;4.25;;
78561;SDS011;68963;52.138;5.446;2024-02-26T12:28:00;11.68;;;4.93;;
78561;SDS011;68963;52.138;5.446;2024-02-26T12:30:26;9.38;;;3.63;;
78561;SDS011;68963;52.138;5.446;2024-02-26T12:32:56;11.35;;;4.45;;
78561;SDS011;68963;52.138;5.446;2024-02-26T12:35:26;11.48;;;4.85;;
78561;SDS011;68963;52.138;5.446;2024-02-26T12:37:53;11.45;;;4.90;;
78561;SDS011;68963;52.138;5.446;2024-02-26T12:40:20;10.90;;;4.57;;
78561;SDS011;68963;52.138;5.446;2024-02-26T12:42:48;11.20;;;4.50;;
78561;SDS011;68963;52.138;5.446;2024-02-26T12:45:15;10.75;;;4.80;;
78561;SDS011;68963;52.138;5.446;2024-02-26T12:47:43;10.65;;;4.57;;
78561;SDS011;68963;52.138;5.446;2024-02-26T12:50:10;11.57;;;4.57;;
78561;SDS011;68963;52.138;5.446;2024-02-26T12:52:46;11.60;;;5.50;;
78561;SDS011;68963;52.138;5.446;2024-02-26T12:55:17;9.57;;;3.38;;
78561;SDS011;68963;52.138;5.446;2024-02-26T12:57:45;9.18;;;3.92;;
78561;SDS011;68963;52.138;5.446;2024-02-26T13:00:13;11.57;;;4.88;;
78561;SDS011;68963;52.138;5.446;2024-02-26T13:02:44;11.55;;;5.53;;
78561;SDS011;68963;52.138;5.446;2024-02-26T13:05:11;9.70;;;3.92;;
78561;SDS011;68963;52.138;5.446;2024-02-26T13:10:10;9.05;;;3.53;;
78561;SDS011;68963;52.138;5.446;2024-02-26T13:12:49;10.02;;;4.38;;
78561;SDS011;68963;52.138;5.446;2024-02-26T13:15:17;11.40;;;4.20;;
78561;SDS011;68963;52.138;5.446;2024-02-26T13:17:46;9.50;;;3.90;;
78561;SDS011;68963;52.138;5.446;2024-02-26T13:20:24;12.10;;;4.30;;
78561;SDS011;68963;52.138;5.446;2024-02-26T13:23:02;10.73;;;4.82;;
78561;SDS011;68963;52.138;5.446;2024-02-26T13:25:31;11.32;;;4.28;;
78561;SDS011;68963;52.138;5.446;2024-02-26T13:28:08;12.32;;;4.85;;
78561;SDS011;68963;52.138;5.446;2024-02-26T13:30:40;11.85;;;4.97;;
78561;SDS011;68963;52.138;5.446;2024-02-26T13:33:07;11.60;;;4.65;;
78561;SDS011;68963;52.138;5.446;2024-02-26T13:35:35;13.18;;;4.55;;
78561;SDS011;68963;52.138;5.446;2024-02-26T13:38:02;10.60;;;4.47;;
78561;SDS011;68963;52.138;5.446;2024-02-26T13:40:29;10.90;;;4.38;;
78561;SDS011;68963;52.138;5.446;2024-02-26T13:42:56;13.07;;;4.32;;
78561;SDS011;68963;52.138;5.446;2024-02-26T13:45:23;10.98;;;4.85;;
78561;SDS011;68963;52.138;5.446;2024-02-26T13:47:49;10.50;;;4.63;;
78561;SDS011;68963;52.138;5.446;2024-02-26T13:50:16;11.07;;;4.40;;
78561;SDS011;68963;52.138;5.446;2024-02-26T13:52:47;9.38;;;4.10;;
78561;SDS011;68963;52.138;5.446;2024-02-26T13:55:14;9.48;;;4.60;;
78561;SDS011;68963;52.138;5.446;2024-02-26T13:57:40;10.13;;;4.13;;
78561;SDS011;68963;52.138;5.446;2024-02-26T14:00:07;11.45;;;4.47;;
78561;SDS011;68963;52.138;5.446;2024-02-26T14:02:37;9.50;;;3.90;;
78561;SDS011;68963;52.138;5.446;2024-02-26T14:05:04;8.95;;;4.18;;
78561;SDS011;68963;52.138;5.446;2024-02-26T14:07:30;8.85;;;3.35;;
78561;SDS011;68963;52.138;5.446;2024-02-26T14:10:00;9.57;;;4.03;;
78561;SDS011;68963;52.138;5.446;2024-02-26T14:12:27;9.23;;;4.20;;
78561;SDS011;68963;52.138;5.446;2024-02-26T14:14:53;7.95;;;3.58;;
78561;SDS011;68963;52.138;5.446;2024-02-26T14:17:22;9.07;;;3.80;;
78561;SDS011;68963;52.138;5.446;2024-02-26T14:19:48;10.38;;;4.07;;
78561;SDS011;68963;52.138;5.446;2024-02-26T14:22:16;8.25;;;3.50;;
78561;SDS011;68963;52.138;5.446;2024-02-26T14:24:42;8.32;;;3.40;;
78561;SDS011;68963;52.138;5.446;2024-02-26T14:27:12;7.55;;;3.42;;
78561;SDS011;68963;52.138;5.446;2024-02-26T14:29:43;8.82;;;3.67;;
78561;SDS011;68963;52.138;5.446;2024-02-26T14:32:10;9.18;;;3.85;;
78561;SDS011;68963;52.138;5.446;2024-02-26T14:34:36;9.15;;;3.80;;
78561;SDS011;68963;52.138;5.446;2024-02-26T14:37:03;7.22;;;3.13;;
78561;SDS011;68963;52.138;5.446;2024-02-26T14:39:31;8.63;;;3.30;;
78561;SDS011;68963;52.138;5.446;2024-02-26T14:41:59;8.80;;;3.35;;
78561;SDS011;68963;52.138;5.446;2024-02-26T14:44:26;9.43;;;4.10;;
78561;SDS011;68963;52.138;5.446;2024-02-26T14:46:53;8.50;;;3.90;;